createdAt,value
2018-11-21T00:01:14.881Z,16.17
2018-11-21T00:03:43.675Z,16.10
2018-11-21T00:06:12.195Z,15.13
2018-11-21T00:08:40.612Z,16.33
2018-11-21T00:11:09.041Z,14.00
2018-11-21T00:13:37.687Z,14.07
2018-11-21T00:16:06.520Z,15.77
2018-11-21T00:18:35.168Z,15.30
2018-11-21T00:21:03.596Z,16.03
2018-11-21T00:23:32.220Z,14.83
2018-11-21T00:26:01.032Z,16.73
2018-11-21T00:28:30.460Z,15.40
2018-11-21T00:30:59.068Z,15.17
2018-11-21T00:33:27.789Z,14.80
2018-11-21T00:35:56.507Z,14.00
2018-11-21T00:38:25.214Z,15.90
2018-11-21T00:40:53.726Z,15.67
2018-11-21T00:43:22.353Z,14.07
2018-11-21T00:45:51.535Z,15.07
2018-11-21T00:48:20.247Z,15.53
2018-11-21T00:50:48.846Z,13.67
2018-11-21T00:53:17.268Z,15.00
2018-11-21T00:55:45.698Z,16.17
2018-11-21T00:58:14.339Z,17.30
2018-11-21T01:00:43.060Z,13.40
2018-11-21T01:03:11.766Z,17.53
2018-11-21T01:05:40.488Z,14.30
2018-11-21T01:08:08.996Z,14.43
2018-11-21T01:10:37.960Z,17.30
2018-11-21T01:13:06.678Z,17.57
2018-11-21T01:15:35.736Z,16.50
2018-11-21T01:18:04.544Z,15.27
2018-11-21T01:20:33.440Z,15.63
2018-11-21T01:23:02.212Z,15.73
2018-11-21T01:25:30.628Z,15.40
2018-11-21T01:27:59.562Z,16.93
2018-11-21T01:30:28.123Z,16.13
2018-11-21T01:32:57.503Z,16.30
2018-11-21T01:35:26.472Z,15.73
2018-11-21T01:37:54.982Z,16.43
2018-11-21T01:40:23.609Z,16.90
2018-11-21T01:42:52.336Z,17.00
2018-11-21T01:45:21.045Z,15.43
2018-11-21T01:47:49.771Z,14.60
2018-11-21T01:50:18.668Z,14.97
2018-11-21T01:52:47.479Z,15.33
2018-11-21T01:55:16.191Z,15.67
2018-11-21T01:57:45.276Z,17.20
2018-11-21T02:00:13.996Z,16.37
2018-11-21T02:02:42.720Z,18.57
2018-11-21T02:05:11.436Z,14.83
2018-11-21T02:07:40.156Z,16.67
2018-11-21T02:10:09.182Z,16.60
2018-11-21T02:12:38.181Z,15.00
2018-11-21T02:15:06.975Z,18.70
2018-11-21T02:17:35.743Z,15.67
2018-11-21T02:20:04.919Z,17.33
2018-11-21T02:22:33.685Z,16.47
2018-11-21T02:25:02.404Z,17.43
2018-11-21T02:27:31.135Z,16.63
2018-11-21T02:29:59.844Z,16.30
2018-11-21T02:32:28.578Z,18.20
2018-11-21T02:34:58.213Z,16.13
2018-11-21T02:37:27.271Z,15.67
2018-11-21T02:39:56.325Z,16.80
2018-11-21T02:42:25.330Z,15.40
2018-11-21T02:44:54.054Z,17.07
2018-11-21T02:47:22.790Z,17.70
2018-11-21T02:49:51.568Z,18.37
2018-11-21T02:52:20.610Z,17.47
2018-11-21T02:54:49.322Z,16.77
2018-11-21T02:57:20.239Z,15.70
2018-11-21T02:59:50.333Z,17.93
2018-11-21T03:02:19.202Z,18.30
2018-11-21T03:04:47.922Z,18.70
2018-11-21T03:07:16.885Z,16.93
2018-11-21T03:09:45.662Z,19.03
2018-11-21T03:12:14.441Z,16.43
2018-11-21T03:14:43.196Z,17.63
2018-11-21T03:17:12.294Z,19.30
2018-11-21T03:19:41.008Z,17.60
2018-11-21T03:22:09.744Z,17.53
2018-11-21T03:24:38.452Z,17.30
2018-11-21T03:27:06.969Z,16.83
2018-11-21T03:29:35.680Z,17.53
2018-11-21T03:32:04.419Z,19.00
2018-11-21T03:34:32.842Z,17.47
2018-11-21T03:37:01.773Z,17.70
2018-11-21T03:39:30.540Z,15.20
2018-11-21T03:41:59.023Z,17.90
2018-11-21T03:44:28.181Z,17.47
2018-11-21T03:46:56.816Z,17.07
2018-11-21T03:49:25.333Z,19.50
2018-11-21T03:51:53.969Z,17.93
2018-11-21T03:54:22.490Z,19.43
2018-11-21T03:56:51.482Z,18.77
2018-11-21T03:59:20.021Z,18.43
2018-11-21T04:01:48.637Z,21.33
2018-11-21T04:04:17.175Z,18.20
2018-11-21T04:06:45.599Z,20.93
2018-11-21T04:09:14.041Z,18.63
2018-11-21T04:11:42.685Z,17.07
2018-11-21T04:14:11.425Z,16.50
2018-11-21T04:16:40.494Z,18.60
2018-11-21T04:19:09.218Z,19.60
2018-11-21T04:21:37.793Z,18.20
2018-11-21T04:24:06.262Z,17.70
2018-11-21T04:26:34.691Z,16.93
2018-11-21T04:29:03.175Z,16.00
2018-11-21T04:31:31.819Z,16.07
2018-11-21T04:34:00.916Z,18.60
2018-11-21T04:36:30.916Z,17.40
2018-11-21T04:39:00.414Z,16.70
2018-11-21T04:41:29.307Z,16.47
2018-11-21T04:43:58.027Z,18.83
2018-11-21T04:46:26.729Z,17.37
2018-11-21T04:48:55.449Z,16.93
2018-11-21T04:51:23.960Z,18.30
2018-11-21T04:53:52.439Z,17.93
2018-11-21T04:56:21.115Z,14.60
2018-11-21T04:58:49.852Z,19.00
2018-11-21T05:01:18.356Z,16.10
2018-11-21T05:03:46.818Z,17.80
2018-11-21T05:06:15.230Z,19.30
2018-11-21T05:08:44.207Z,18.40
2018-11-21T05:11:12.720Z,18.80
2018-11-21T05:13:41.187Z,17.63
2018-11-21T05:16:09.812Z,18.07
2018-11-21T05:18:38.526Z,18.47
2018-11-21T05:21:07.029Z,17.87
2018-11-21T05:23:35.452Z,18.80
2018-11-21T05:26:04.071Z,17.77
2018-11-21T05:28:33.226Z,19.83
2018-11-21T05:31:01.779Z,19.97
2018-11-21T05:33:30.198Z,18.63
2018-11-21T05:35:58.841Z,16.33
2018-11-21T05:38:27.337Z,19.10
2018-11-21T05:40:56.285Z,18.27
2018-11-21T05:43:25.032Z,18.33
2018-11-21T05:45:53.551Z,17.63
2018-11-21T05:48:22.043Z,19.40
2018-11-21T05:50:50.977Z,20.20
2018-11-21T05:53:19.821Z,16.53
2018-11-21T05:55:48.446Z,20.03
2018-11-21T05:58:16.981Z,20.57
2018-11-21T06:00:49.129Z,18.17
2018-11-21T06:03:13.810Z,19.47
2018-11-21T06:05:42.232Z,17.57
2018-11-21T06:08:10.868Z,21.40
2018-11-21T06:10:39.424Z,18.77
2018-11-21T06:13:07.861Z,17.23
2018-11-21T06:15:36.280Z,18.47
2018-11-21T06:18:05.241Z,19.27
2018-11-21T06:20:33.970Z,17.50
2018-11-21T06:23:02.491Z,16.73
2018-11-21T06:25:31.124Z,18.70
2018-11-21T06:27:59.626Z,18.90
2018-11-21T06:30:28.886Z,19.03
2018-11-21T06:32:57.615Z,18.92
2018-11-21T06:35:26.343Z,18.73
2018-11-21T06:37:55.096Z,19.63
2018-11-21T06:40:23.646Z,21.07
2018-11-21T06:42:53.927Z,18.23
2018-11-21T06:45:23.509Z,25.30
2018-11-21T06:47:52.115Z,22.33
2018-11-21T06:50:20.868Z,22.50
2018-11-21T06:52:49.442Z,20.00
2018-11-21T06:55:18.384Z,19.53
2018-11-21T06:57:46.931Z,17.43
2018-11-21T07:00:15.677Z,19.07
2018-11-21T07:02:44.301Z,21.23
2018-11-21T07:05:12.822Z,19.97
2018-11-21T07:07:41.237Z,18.23
2018-11-21T07:10:13.938Z,18.63
2018-11-21T07:12:43.308Z,18.83
2018-11-21T07:15:12.416Z,18.07
2018-11-21T07:17:41.131Z,19.67
2018-11-21T07:20:11.031Z,20.73
2018-11-21T07:22:39.770Z,18.93
2018-11-21T07:25:10.022Z,17.10
2018-11-21T07:27:38.448Z,19.37
2018-11-21T07:30:08.405Z,17.63
2018-11-21T07:32:37.018Z,20.43
2018-11-21T07:35:06.086Z,20.07
2018-11-21T07:37:34.699Z,17.33
2018-11-21T07:40:03.944Z,16.90
2018-11-21T07:42:32.669Z,17.65
2018-11-21T07:45:01.392Z,18.50
2018-11-21T07:47:29.897Z,19.53
2018-11-21T07:49:58.518Z,17.87
2018-11-21T07:52:28.017Z,20.43
2018-11-21T07:54:56.688Z,20.13
2018-11-21T07:57:31.185Z,18.30
2018-11-21T08:00:18.388Z,16.33
2018-11-21T08:02:49.026Z,19.50
2018-11-21T08:05:21.764Z,19.60
2018-11-21T08:08:08.679Z,18.60
2018-11-21T08:10:54.704Z,18.50
2018-11-21T08:13:45.384Z,20.40
2018-11-21T08:16:31.711Z,18.23
2018-11-21T08:19:22.317Z,20.33
2018-11-21T08:22:25.249Z,17.57
2018-11-21T08:25:11.648Z,18.80
2018-11-21T08:27:59.527Z,17.63
2018-11-21T08:30:28.282Z,21.50
2018-11-21T08:32:56.703Z,20.83
2018-11-21T08:35:25.155Z,17.77
2018-11-21T08:37:53.709Z,19.53
2018-11-21T08:40:22.612Z,17.70
2018-11-21T08:42:51.423Z,18.57
2018-11-21T08:45:20.096Z,17.57
2018-11-21T08:47:48.600Z,18.50
2018-11-21T08:50:17.009Z,19.23
2018-11-21T08:52:45.434Z,18.43
2018-11-21T08:55:13.948Z,18.20
2018-11-21T08:57:42.583Z,18.03
2018-11-21T09:00:11.800Z,19.07
2018-11-21T09:02:40.311Z,19.27
2018-11-21T09:05:09.546Z,34.93
2018-11-21T09:07:39.183Z,21.70
2018-11-21T09:10:10.019Z,22.73
2018-11-21T09:12:38.737Z,18.60
2018-11-21T09:15:11.851Z,24.80
2018-11-21T09:17:40.813Z,20.23
2018-11-21T09:20:10.753Z,21.43
2018-11-21T09:22:39.687Z,23.03
2018-11-21T09:25:08.659Z,23.87
2018-11-21T09:27:37.779Z,21.13
2018-11-21T09:30:17.017Z,20.13
2018-11-21T09:32:46.560Z,22.43
2018-11-21T09:35:16.312Z,25.23
2018-11-21T09:37:45.097Z,22.53
2018-11-21T09:40:18.124Z,20.20
2018-11-21T09:42:48.028Z,21.07
2018-11-21T09:45:18.103Z,20.37
2018-11-21T09:47:46.666Z,18.70
2018-11-21T09:50:17.406Z,18.97
2018-11-21T09:52:50.349Z,18.53
2018-11-21T09:55:14.921Z,18.53
2018-11-21T09:57:43.373Z,19.57
2018-11-21T10:00:50.143Z,18.33
2018-11-21T10:03:29.121Z,22.83
2018-11-21T10:05:59.032Z,21.83
2018-11-21T10:08:40.315Z,28.47
2018-11-21T10:11:09.510Z,18.70
2018-11-21T10:13:37.933Z,22.70
2018-11-21T10:16:06.667Z,21.47
2018-11-21T10:18:36.359Z,20.37
2018-11-21T10:21:06.596Z,17.67
2018-11-21T10:23:35.010Z,19.83
2018-11-21T10:26:03.487Z,20.13
2018-11-21T10:28:32.103Z,19.77
2018-11-21T10:31:00.824Z,24.43
2018-11-21T10:33:29.691Z,21.03
2018-11-21T10:35:58.437Z,21.57
2018-11-21T10:38:26.938Z,19.00
2018-11-21T10:40:55.707Z,20.30
2018-11-21T10:43:28.387Z,20.70
2018-11-21T10:45:53.585Z,21.83
2018-11-21T10:48:22.340Z,21.40
2018-11-21T10:50:51.052Z,19.40
2018-11-21T10:53:19.810Z,23.13
2018-11-21T10:55:48.429Z,20.97
2018-11-21T10:58:17.317Z,23.10
2018-11-21T11:01:03.844Z,21.63
2018-11-21T11:03:40.734Z,23.13
2018-11-21T11:06:34.533Z,21.43
2018-11-21T11:09:21.390Z,20.93
2018-11-21T11:12:09.052Z,18.77
2018-11-21T11:14:59.979Z,20.37
2018-11-21T11:17:47.836Z,21.93
2018-11-21T11:20:38.773Z,20.87
2018-11-21T11:23:25.093Z,20.77
2018-11-21T11:26:24.806Z,21.23
2018-11-21T11:29:10.994Z,19.43
2018-11-21T11:31:57.346Z,20.00
2018-11-21T11:34:54.539Z,23.42
2018-11-21T11:37:41.053Z,18.13
2018-11-21T11:40:28.683Z,22.10
2018-11-21T11:43:28.021Z,19.03
2018-11-21T11:46:10.778Z,20.97
2018-11-21T11:48:57.725Z,21.33
2018-11-21T11:51:48.344Z,17.70
2018-11-21T11:54:34.220Z,20.97
2018-11-21T11:57:33.866Z,22.10
2018-11-21T12:00:12.541Z,20.73
2018-11-21T12:02:48.394Z,21.83
2018-11-21T12:05:34.820Z,23.40
2018-11-21T12:08:37.779Z,26.07
2018-11-21T12:11:34.399Z,21.93
2018-11-21T12:14:15.702Z,25.57
2018-11-21T12:17:09.674Z,24.43
2018-11-21T12:20:00.331Z,22.13
2018-11-21T12:22:46.791Z,23.20
2018-11-21T12:25:25.972Z,21.37
2018-11-21T12:28:07.640Z,24.80
2018-11-21T12:30:58.829Z,23.37
2018-11-21T12:33:55.638Z,22.90
2018-11-21T12:36:35.363Z,22.00
2018-11-21T12:39:22.758Z,24.53
2018-11-21T12:42:17.035Z,23.50
2018-11-21T12:45:04.884Z,24.80
2018-11-21T12:48:07.884Z,23.27
2018-11-21T12:50:54.981Z,23.03
2018-11-21T12:53:48.531Z,25.10
2018-11-21T12:56:29.876Z,23.47
2018-11-21T12:59:20.629Z,24.43
2018-11-21T13:01:58.247Z,20.03
2018-11-21T13:04:49.957Z,23.00
2018-11-21T13:07:36.853Z,24.83
2018-11-21T13:10:25.670Z,27.77
2018-11-21T13:13:12.314Z,24.97
2018-11-21T13:15:52.810Z,21.63
2018-11-21T13:18:39.187Z,23.17
2018-11-21T13:21:39.346Z,23.97
2018-11-21T13:24:39.430Z,22.17
2018-11-21T13:27:45.642Z,27.10
2018-11-21T13:30:32.482Z,20.43
2018-11-21T13:33:20.040Z,23.80
2018-11-21T13:35:59.801Z,21.13
2018-11-21T13:38:58.805Z,23.47
2018-11-21T13:41:47.662Z,21.93
2018-11-21T13:44:41.331Z,22.87
2018-11-21T13:47:15.638Z,24.23
2018-11-21T13:50:03.205Z,25.87
2018-11-21T13:52:38.534Z,25.83
2018-11-21T13:55:07.153Z,24.70
2018-11-21T13:57:35.575Z,28.13
2018-11-21T14:00:05.306Z,25.87
2018-11-21T14:02:34.731Z,28.23
2018-11-21T14:05:03.445Z,25.50
2018-11-21T14:07:31.942Z,22.90
2018-11-21T14:10:00.360Z,28.30
2018-11-21T14:12:29.080Z,21.17
2018-11-21T14:14:58.295Z,20.93
2018-11-21T14:17:27.679Z,25.40
2018-11-21T14:19:55.385Z,22.70
2018-11-21T14:22:24.218Z,23.23
2018-11-21T14:24:52.646Z,24.00
2018-11-21T14:27:21.052Z,21.97
2018-11-21T14:29:49.690Z,23.57
2018-11-21T14:32:18.186Z,25.20
2018-11-21T14:34:46.667Z,25.90
2018-11-21T14:37:15.075Z,19.43
2018-11-21T14:39:43.503Z,25.80
2018-11-21T14:42:11.950Z,26.30
2018-11-21T14:44:40.573Z,27.10
2018-11-21T14:47:11.306Z,25.50
2018-11-21T14:49:38.861Z,24.80
2018-11-21T14:52:07.271Z,24.33
2018-11-21T14:54:35.690Z,25.37
2018-11-21T14:57:04.101Z,23.73
2018-11-21T14:59:32.523Z,20.67
2018-11-21T15:02:01.171Z,24.63
2018-11-21T15:04:29.986Z,25.67
2018-11-21T15:06:58.654Z,27.33
2018-11-21T15:09:27.156Z,26.20
2018-11-21T15:11:55.610Z,26.93
2018-11-21T15:14:24.106Z,25.30
2018-11-21T15:16:52.795Z,26.52
2018-11-21T15:19:21.558Z,33.90
2018-11-21T15:21:50.082Z,25.10
2018-11-21T15:24:18.709Z,26.23
2018-11-21T15:26:47.408Z,29.70
2018-11-21T15:29:15.926Z,37.97
2018-11-21T15:31:44.336Z,28.40
2018-11-21T15:34:12.970Z,27.93
2018-11-21T15:36:41.679Z,21.30
2018-11-21T15:39:11.055Z,27.03
2018-11-21T15:41:40.227Z,24.87
2018-11-21T15:44:08.944Z,29.87
2018-11-21T15:46:37.651Z,26.93
2018-11-21T15:49:06.175Z,26.73
2018-11-21T15:51:34.986Z,25.03
2018-11-21T15:54:03.502Z,26.97
2018-11-21T15:56:32.183Z,32.67
2018-11-21T15:59:00.739Z,25.57
2018-11-21T16:01:30.115Z,26.03
2018-11-21T16:03:59.944Z,26.90
2018-11-21T16:06:28.570Z,30.63
2018-11-21T16:08:57.082Z,27.57
2018-11-21T16:11:25.823Z,25.60
2018-11-21T16:13:54.461Z,29.03
2018-11-21T16:16:22.977Z,32.00
2018-11-21T16:18:51.609Z,29.93
2018-11-21T16:21:20.319Z,26.53
2018-11-21T16:23:49.351Z,27.73
2018-11-21T16:26:17.823Z,28.17
2018-11-21T16:28:46.450Z,23.07
2018-11-21T16:31:14.954Z,24.80
2018-11-21T16:33:43.397Z,24.47
2018-11-21T16:36:12.015Z,25.40
2018-11-21T16:38:40.740Z,21.37
2018-11-21T16:41:10.069Z,21.90
2018-11-21T16:43:39.034Z,23.70
2018-11-21T16:46:07.559Z,22.33
2018-11-21T16:48:36.177Z,25.47
2018-11-21T16:51:05.088Z,21.30
2018-11-21T16:53:35.249Z,24.50
2018-11-21T16:56:02.204Z,23.90
2018-11-21T16:58:30.904Z,21.20
2018-11-21T17:00:59.662Z,22.97
2018-11-21T17:03:28.323Z,23.60
2018-11-21T17:05:57.038Z,26.93
2018-11-21T17:08:26.043Z,21.50
2018-11-21T17:10:54.747Z,22.53
2018-11-21T17:13:23.446Z,22.60
2018-11-21T17:15:51.961Z,25.77
2018-11-21T17:18:20.616Z,23.53
2018-11-21T17:20:49.232Z,21.70
2018-11-21T17:23:17.994Z,24.10
2018-11-21T17:25:46.643Z,21.77
2018-11-21T17:28:15.359Z,24.30
2018-11-21T17:30:43.919Z,21.57
2018-11-21T17:33:12.356Z,22.33
2018-11-21T17:35:40.993Z,22.00
2018-11-21T17:38:10.149Z,23.93
2018-11-21T17:40:40.294Z,26.33
2018-11-21T17:43:08.703Z,30.07
2018-11-21T17:45:37.383Z,29.77
2018-11-21T17:48:06.754Z,23.37
2018-11-21T17:50:35.285Z,23.80
2018-11-21T17:53:05.083Z,22.53
2018-11-21T17:55:34.490Z,22.83
2018-11-21T17:58:02.896Z,20.87
2018-11-21T18:00:31.996Z,27.60
2018-11-21T18:03:00.836Z,22.80
2018-11-21T18:05:31.351Z,22.60
2018-11-21T18:08:00.045Z,21.93
2018-11-21T18:10:30.521Z,20.60
2018-11-21T18:12:59.865Z,22.40
2018-11-21T18:15:28.485Z,24.37
2018-11-21T18:17:57.061Z,19.80
2018-11-21T18:20:26.231Z,16.80
2018-11-21T18:22:54.854Z,18.00
2018-11-21T18:25:25.658Z,17.30
2018-11-21T18:27:54.393Z,18.57
2018-11-21T18:30:23.755Z,17.10
2018-11-21T18:32:53.692Z,19.40
2018-11-21T18:35:23.226Z,18.80
2018-11-21T18:37:53.074Z,17.93
2018-11-21T18:40:35.106Z,22.53
2018-11-21T18:43:14.940Z,17.00
2018-11-21T18:45:44.883Z,23.13
2018-11-21T18:48:13.806Z,22.60
2018-11-21T18:50:42.333Z,33.77
2018-11-21T18:53:11.584Z,49.30
2018-11-21T18:55:41.266Z,43.67
2018-11-21T18:58:41.529Z,32.40
2018-11-21T19:01:10.003Z,28.50
2018-11-21T19:03:38.617Z,24.30
2018-11-21T19:06:07.627Z,21.00
2018-11-21T19:08:36.135Z,20.13
2018-11-21T19:11:05.119Z,18.13
2018-11-21T19:13:33.916Z,24.27
2018-11-21T19:16:02.425Z,16.57
2018-11-21T19:18:31.871Z,18.57
2018-11-21T19:21:00.467Z,21.43
2018-11-21T19:23:29.097Z,18.90
2018-11-21T19:25:57.693Z,16.53
2018-11-21T19:28:26.844Z,15.23
2018-11-21T19:30:55.773Z,17.70
2018-11-21T19:33:24.279Z,15.90
2018-11-21T19:35:52.791Z,15.83
2018-11-21T19:38:21.519Z,17.67
2018-11-21T19:40:50.040Z,17.20
2018-11-21T19:43:18.706Z,14.00
2018-11-21T19:45:47.456Z,14.13
2018-11-21T19:48:16.154Z,15.63
2018-11-21T19:50:44.686Z,17.13
2018-11-21T19:53:13.351Z,14.40
2018-11-21T19:55:41.786Z,16.57
2018-11-21T19:58:10.787Z,14.20
2018-11-21T20:00:39.632Z,15.60
2018-11-21T20:03:08.514Z,17.57
2018-11-21T20:05:36.989Z,18.50
2018-11-21T20:08:05.705Z,16.93
2018-11-21T20:10:34.407Z,15.60
2018-11-21T20:13:03.475Z,18.63
2018-11-21T20:15:32.301Z,17.12
2018-11-21T20:18:02.150Z,15.33
2018-11-21T20:20:31.161Z,15.47
2018-11-21T20:23:02.917Z,16.97
2018-11-21T20:25:28.969Z,21.30
2018-11-21T20:27:57.757Z,18.73
2018-11-21T20:30:35.117Z,18.37
2018-11-21T20:33:03.754Z,18.83
2018-11-21T20:35:32.422Z,18.13
2018-11-21T20:38:00.930Z,18.60
2018-11-21T20:40:31.156Z,18.63
2018-11-21T20:42:59.705Z,17.77
2018-11-21T20:45:28.758Z,19.67
2018-11-21T20:47:58.509Z,18.52
2018-11-21T20:50:27.729Z,16.30
2018-11-21T20:52:57.181Z,14.50
2018-11-21T20:55:27.480Z,17.17
2018-11-21T20:57:55.947Z,17.73
2018-11-21T21:00:26.027Z,17.73
2018-11-21T21:02:54.974Z,16.77
2018-11-21T21:05:25.032Z,17.53
2018-11-21T21:07:53.837Z,17.47
2018-11-21T21:10:24.208Z,14.27
2018-11-21T21:12:52.698Z,15.73
2018-11-21T21:15:21.380Z,16.97
2018-11-21T21:17:51.060Z,17.87
2018-11-21T21:20:20.987Z,17.00
2018-11-21T21:22:50.886Z,14.90
2018-11-21T21:25:21.079Z,15.70
2018-11-21T21:27:49.591Z,16.43
2018-11-21T21:30:19.778Z,15.53
2018-11-21T21:32:48.533Z,16.83
2018-11-21T21:35:18.131Z,17.73
2018-11-21T21:37:46.771Z,17.07
2018-11-21T21:40:20.232Z,17.93
2018-11-21T21:42:45.760Z,19.03
2018-11-21T21:45:16.385Z,15.47
2018-11-21T21:47:44.941Z,16.40
2018-11-21T21:50:14.397Z,16.30
2018-11-21T21:52:43.017Z,15.03
2018-11-21T21:55:12.924Z,17.90
2018-11-21T21:57:41.425Z,15.67
2018-11-21T22:00:12.340Z,17.67
2018-11-21T22:02:41.063Z,16.80
2018-11-21T22:05:10.280Z,15.10
2018-11-21T22:07:38.714Z,14.33
2018-11-21T22:10:08.951Z,16.43
2018-11-21T22:12:37.461Z,17.53
2018-11-21T22:15:13.911Z,16.77
2018-11-21T22:17:42.562Z,17.07
2018-11-21T22:20:11.270Z,16.37
2018-11-21T22:22:39.785Z,16.37
2018-11-21T22:25:08.420Z,16.30
2018-11-21T22:27:37.144Z,17.90
2018-11-21T22:30:06.846Z,17.63
2018-11-21T22:32:35.267Z,18.13
2018-11-21T22:35:03.798Z,16.10
2018-11-21T22:37:37.908Z,16.83
2018-11-21T22:40:00.847Z,16.07
2018-11-21T22:42:29.432Z,19.67
2018-11-21T22:44:58.655Z,18.65
2018-11-21T22:47:27.373Z,17.10
2018-11-21T22:49:56.079Z,18.90
2018-11-21T22:52:25.056Z,15.90
2018-11-21T22:54:53.554Z,16.73
2018-11-21T22:57:21.976Z,19.10
2018-11-21T22:59:50.598Z,19.47
2018-11-21T23:02:19.217Z,19.07
2018-11-21T23:04:47.927Z,20.33
2018-11-21T23:07:16.643Z,20.83
2018-11-21T23:09:45.370Z,17.87
2018-11-21T23:12:14.087Z,18.93
2018-11-21T23:14:42.597Z,17.13
2018-11-21T23:17:11.214Z,19.30
2018-11-21T23:19:40.368Z,18.80
2018-11-21T23:22:08.726Z,18.77
2018-11-21T23:24:37.469Z,19.23
2018-11-21T23:27:05.894Z,17.47
2018-11-21T23:29:34.527Z,19.20
2018-11-21T23:32:03.026Z,20.00
2018-11-21T23:34:31.976Z,19.63
2018-11-21T23:37:00.672Z,18.10
2018-11-21T23:39:29.385Z,19.77
2018-11-21T23:41:58.351Z,19.73
2018-11-21T23:44:26.871Z,18.13
2018-11-21T23:46:55.301Z,15.27
2018-11-21T23:49:24.005Z,16.67
2018-11-21T23:51:52.570Z,17.90
2018-11-21T23:54:21.551Z,16.03
2018-11-21T23:57:15.530Z,18.87
2018-11-21T23:59:18.983Z,17.53
